createdAt,value
2023-03-07T00:00:20.562Z,99166.72
2023-03-07T00:02:51.637Z,99171.00
2023-03-07T00:05:19.077Z,99173.44
2023-03-07T00:07:45.798Z,99161.38
2023-03-07T00:10:12.199Z,99154.69
2023-03-07T00:12:38.689Z,99153.03
2023-03-07T00:15:05.728Z,99149.56
2023-03-07T00:17:32.109Z,99156.50
2023-03-07T00:19:58.480Z,99143.59
2023-03-07T00:22:24.876Z,99139.09
2023-03-07T00:24:51.520Z,99138.56
2023-03-07T00:27:17.943Z,99135.25
2023-03-07T00:29:44.398Z,99134.72
2023-03-07T00:32:10.798Z,99125.03
2023-03-07T00:34:37.220Z,99121.00
2023-03-07T00:37:03.998Z,99115.84
2023-03-07T00:39:30.788Z,99114.75
2023-03-07T00:41:57.257Z,99110.94
2023-03-07T00:44:25.518Z,99107.50
2023-03-07T00:46:52.012Z,99096.00
2023-03-07T00:49:20.463Z,99097.44
2023-03-07T00:51:47.547Z,99092.81
2023-03-07T00:54:14.979Z,99084.53
2023-03-07T00:56:41.678Z,99075.44
2023-03-07T00:59:08.966Z,99077.84
2023-03-07T01:01:35.883Z,99070.09
2023-03-07T01:04:02.474Z,99066.59
2023-03-07T01:06:31.127Z,99057.16
2023-03-07T01:09:00.242Z,99052.03
2023-03-07T01:11:28.240Z,99040.56
2023-03-07T01:13:56.640Z,99037.66
2023-03-07T01:16:26.901Z,99033.34
2023-03-07T01:18:55.764Z,99029.09
2023-03-07T01:21:26.993Z,99026.41
2023-03-07T01:23:53.580Z,99013.03
2023-03-07T01:26:26.238Z,99017.81
2023-03-07T01:28:55.616Z,99014.34
2023-03-07T01:31:23.397Z,99013.84
2023-03-07T01:33:51.753Z,99005.00
2023-03-07T01:36:21.714Z,99006.84
2023-03-07T01:38:49.271Z,99003.94
2023-03-07T01:41:16.685Z,99004.72
2023-03-07T01:43:44.275Z,99005.00
2023-03-07T01:46:22.265Z,98994.00
2023-03-07T01:48:59.144Z,98998.53
2023-03-07T01:51:29.062Z,98992.63
2023-03-07T01:53:59.155Z,98985.38
2023-03-07T01:56:26.350Z,98977.34
2023-03-07T01:58:54.177Z,98984.28
2023-03-07T02:01:23.062Z,98972.25
2023-03-07T02:03:55.275Z,98970.66
2023-03-07T02:06:24.920Z,98963.91
2023-03-07T02:08:53.581Z,98958.84
2023-03-07T02:11:20.383Z,98957.50
2023-03-07T02:13:47.220Z,98961.56
2023-03-07T02:16:14.076Z,98951.91
2023-03-07T02:18:44.734Z,98958.88
2023-03-07T02:21:24.423Z,98960.75
2023-03-07T02:24:09.896Z,98959.19
2023-03-07T02:26:47.523Z,98948.47
2023-03-07T02:29:14.604Z,98953.31
2023-03-07T02:31:43.837Z,98951.41
2023-03-07T02:34:25.379Z,98948.47
2023-03-07T02:37:07.674Z,98948.47
2023-03-07T02:39:34.511Z,98941.22
2023-03-07T02:42:11.130Z,98930.78
2023-03-07T02:44:46.996Z,98936.13
2023-03-07T02:47:16.118Z,98943.41
2023-03-07T02:49:42.592Z,98934.81
2023-03-07T02:52:09.199Z,98941.81
2023-03-07T02:54:35.695Z,98934.31
2023-03-07T02:57:02.346Z,98933.25
2023-03-07T02:59:28.958Z,98924.63
2023-03-07T03:01:57.035Z,98923.31
2023-03-07T03:04:23.676Z,98920.34
2023-03-07T03:06:50.721Z,98921.41
2023-03-07T03:09:17.169Z,98917.69
2023-03-07T03:11:43.740Z,98923.56
2023-03-07T03:14:10.273Z,98925.47
2023-03-07T03:16:36.751Z,98909.63
2023-03-07T03:19:03.410Z,98908.56
2023-03-07T03:21:29.904Z,98932.97
2023-03-07T03:23:56.444Z,98904.53
2023-03-07T03:26:23.439Z,98915.78
2023-03-07T03:28:50.749Z,98919.84
2023-03-07T03:31:18.062Z,98926.00
2023-03-07T03:33:44.773Z,98912.31
2023-03-07T03:36:14.592Z,98917.69
2023-03-07T03:38:42.385Z,98928.16
2023-03-07T03:41:15.936Z,98917.16
2023-03-07T03:43:43.405Z,98920.91
2023-03-07T03:46:10.175Z,98918.47
2023-03-07T03:48:37.616Z,98919.81
2023-03-07T03:51:10.274Z,98912.59
2023-03-07T03:53:38.622Z,98911.25
2023-03-07T03:56:13.859Z,98924.09
2023-03-07T03:58:42.184Z,98920.09
2023-03-07T04:01:11.531Z,98915.00
2023-03-07T04:03:40.822Z,98916.59
2023-03-07T04:06:09.909Z,98920.88
2023-03-07T04:08:37.461Z,98919.00
2023-03-07T04:11:05.169Z,98919.00
2023-03-07T04:13:33.435Z,98920.88
2023-03-07T04:16:00.042Z,98921.94
2023-03-07T04:18:26.770Z,98921.16
2023-03-07T04:20:53.425Z,98919.78
2023-03-07T04:23:22.424Z,98914.72
2023-03-07T04:25:55.762Z,98907.19
2023-03-07T04:28:28.771Z,98913.34
2023-03-07T04:30:56.299Z,98902.63
2023-03-07T04:33:24.310Z,98895.63
2023-03-07T04:35:50.819Z,98907.47
2023-03-07T04:38:17.787Z,98912.25
2023-03-07T04:40:44.339Z,98891.06
2023-03-07T04:43:11.259Z,98896.13
2023-03-07T04:45:38.616Z,98890.50
2023-03-07T04:48:05.599Z,98902.28
2023-03-07T04:50:33.344Z,98900.69
2023-03-07T04:53:00.615Z,98909.25
2023-03-07T04:55:27.236Z,98922.94
2023-03-07T04:57:54.121Z,98915.13
2023-03-07T05:00:20.960Z,98918.34
2023-03-07T05:02:49.789Z,98904.94
2023-03-07T05:05:17.621Z,98910.34
2023-03-07T05:07:44.437Z,98906.06
2023-03-07T05:10:11.934Z,98907.94
2023-03-07T05:12:38.399Z,98914.09
2023-03-07T05:15:06.654Z,98900.97
2023-03-07T05:17:33.084Z,98885.69
2023-03-07T05:19:59.484Z,98894.00
2023-03-07T05:22:26.215Z,98887.31
2023-03-07T05:24:52.665Z,98883.81
2023-03-07T05:27:19.453Z,98880.03
2023-03-07T05:29:46.025Z,98887.81
2023-03-07T05:32:12.445Z,98893.44
2023-03-07T05:34:39.502Z,98892.13
2023-03-07T05:37:06.433Z,98882.97
2023-03-07T05:39:32.925Z,98885.13
2023-03-07T05:41:59.575Z,98886.44
2023-03-07T05:44:27.147Z,98875.44
2023-03-07T05:46:55.124Z,98872.25
2023-03-07T05:49:21.770Z,98868.78
2023-03-07T05:51:48.290Z,98871.19
2023-03-07T05:54:14.689Z,98873.06
2023-03-07T05:56:41.126Z,98866.09
2023-03-07T05:59:07.862Z,98873.09
2023-03-07T06:01:35.389Z,98869.31
2023-03-07T06:04:02.121Z,98867.72
2023-03-07T06:06:31.297Z,98875.53
2023-03-07T06:08:57.994Z,98874.97
2023-03-07T06:11:24.471Z,98880.06
2023-03-07T06:13:51.992Z,98878.47
2023-03-07T06:16:18.707Z,98878.75
2023-03-07T06:18:45.335Z,98875.25
2023-03-07T06:21:15.583Z,98874.69
2023-03-07T06:23:45.012Z,98868.81
2023-03-07T06:26:15.016Z,98870.44
2023-03-07T06:28:43.993Z,98871.75
2023-03-07T06:31:15.098Z,98868.56
2023-03-07T06:33:43.101Z,98880.09
2023-03-07T06:36:13.156Z,98864.00
2023-03-07T06:38:42.148Z,98879.00
2023-03-07T06:41:08.903Z,98870.44
2023-03-07T06:43:35.834Z,98868.03
2023-03-07T06:46:03.453Z,98880.63
2023-03-07T06:48:34.896Z,98876.34
2023-03-07T06:51:10.066Z,98871.25
2023-03-07T06:53:38.927Z,98882.78
2023-03-07T06:56:05.655Z,98876.91
2023-03-07T06:58:33.702Z,98886.00
2023-03-07T07:01:00.703Z,98889.22
2023-03-07T07:03:28.316Z,98890.84
2023-03-07T07:05:54.774Z,98884.94
2023-03-07T07:08:21.457Z,98878.50
2023-03-07T07:10:47.980Z,98885.22
2023-03-07T07:13:15.228Z,98889.22
2023-03-07T07:15:41.935Z,98898.91
2023-03-07T07:18:11.505Z,98901.06
2023-03-07T07:20:38.277Z,98906.41
2023-03-07T07:23:05.232Z,98897.28
2023-03-07T07:25:31.855Z,98891.13
2023-03-07T07:27:58.306Z,98895.94
2023-03-07T07:30:25.149Z,98889.53
2023-03-07T07:32:52.318Z,98899.69
2023-03-07T07:35:21.136Z,98895.41
2023-03-07T07:37:47.573Z,98895.41
2023-03-07T07:40:15.203Z,98901.59
2023-03-07T07:42:43.407Z,98899.44
2023-03-07T07:45:20.347Z,98895.69
2023-03-07T07:47:49.899Z,98901.84
2023-03-07T07:50:21.132Z,98895.94
2023-03-07T07:52:48.619Z,98900.53
2023-03-07T07:55:15.817Z,98916.06
2023-03-07T07:57:43.524Z,98913.66
2023-03-07T08:00:12.380Z,98905.59
2023-03-07T08:02:39.728Z,98905.06
2023-03-07T08:05:12.691Z,98922.22
2023-03-07T08:07:39.108Z,98911.78
2023-03-07T08:10:06.210Z,98918.72
2023-03-07T08:12:32.661Z,98923.56
2023-03-07T08:14:59.139Z,98922.47
2023-03-07T08:17:25.557Z,98930.47
2023-03-07T08:19:52.069Z,98930.75
2023-03-07T08:22:19.628Z,98929.66
2023-03-07T08:24:49.837Z,98928.03
2023-03-07T08:27:16.259Z,98936.59
2023-03-07T08:29:43.049Z,98930.97
2023-03-07T08:32:11.879Z,98932.34
2023-03-07T08:34:38.476Z,98947.84
2023-03-07T08:37:05.220Z,98946.47
2023-03-07T08:39:31.828Z,98956.94
2023-03-07T08:41:59.331Z,98940.22
2023-03-07T08:44:25.983Z,98949.06
2023-03-07T08:46:52.419Z,98946.97
2023-03-07T08:49:19.094Z,98957.34
2023-03-07T08:51:48.701Z,98950.09
2023-03-07T08:54:15.237Z,98942.31
2023-03-07T08:56:41.683Z,98949.75
2023-03-07T08:59:08.104Z,98944.38
2023-03-07T09:01:34.619Z,98950.34
2023-03-07T09:04:03.933Z,98959.16
2023-03-07T09:06:30.873Z,98959.31
2023-03-07T09:08:57.363Z,98951.59
2023-03-07T09:11:23.903Z,98949.69
2023-03-07T09:13:52.883Z,98951.81
2023-03-07T09:16:20.474Z,98952.06
2023-03-07T09:18:47.264Z,98948.84
2023-03-07T09:21:13.827Z,98953.69
2023-03-07T09:23:40.281Z,98948.22
2023-03-07T09:26:07.457Z,98939.22
2023-03-07T09:28:33.869Z,98944.50
2023-03-07T09:31:05.989Z,98943.94
2023-03-07T09:33:32.726Z,98949.25
2023-03-07T09:35:59.204Z,98951.94
2023-03-07T09:38:25.632Z,98943.06
2023-03-07T09:40:52.841Z,98943.91
2023-03-07T09:43:26.224Z,98946.56
2023-03-07T09:46:49.855Z,98952.97
2023-03-07T09:49:34.196Z,98955.47
2023-03-07T09:52:02.770Z,98949.56
2023-03-07T09:54:46.533Z,98955.41
2023-03-07T09:57:24.435Z,98951.44
2023-03-07T09:59:56.128Z,98957.84
2023-03-07T10:02:43.639Z,98946.34
2023-03-07T10:05:29.414Z,98953.03
2023-03-07T10:07:56.495Z,98959.09
2023-03-07T10:10:26.550Z,98962.19
2023-03-07T10:13:18.721Z,98964.13
2023-03-07T10:15:54.848Z,98959.44
2023-03-07T10:18:35.851Z,98956.53
2023-03-07T10:21:17.204Z,98961.28
2023-03-07T10:23:46.688Z,98962.63
2023-03-07T10:26:21.360Z,98965.03
2023-03-07T10:28:48.932Z,98964.84
2023-03-07T10:31:22.181Z,98971.78
2023-03-07T10:33:50.636Z,98967.19
2023-03-07T10:36:53.194Z,98962.44
2023-03-07T10:39:34.391Z,98971.06
2023-03-07T10:42:01.080Z,98964.56
2023-03-07T10:44:33.779Z,98973.19
2023-03-07T10:47:00.627Z,98974.50
2023-03-07T10:49:43.976Z,98971.06
2023-03-07T10:52:19.954Z,98972.16
2023-03-07T10:54:46.402Z,98973.25
2023-03-07T10:57:16.101Z,98967.13
2023-03-07T10:59:50.324Z,98969.88
2023-03-07T11:02:36.578Z,98972.84
2023-03-07T11:05:33.118Z,98969.91
2023-03-07T11:08:00.265Z,98971.75
2023-03-07T11:10:52.305Z,98967.97
2023-03-07T11:13:21.279Z,98968.84
2023-03-07T11:15:49.113Z,98964.50
2023-03-07T11:18:30.591Z,98961.06
2023-03-07T11:20:58.491Z,98957.03
2023-03-07T11:23:26.386Z,98954.28
2023-03-07T11:25:55.270Z,98947.91
2023-03-07T11:28:29.836Z,98936.94
2023-03-07T11:31:23.722Z,98928.91
2023-03-07T11:34:11.412Z,98930.50
2023-03-07T11:36:42.537Z,98935.09
2023-03-07T11:39:28.306Z,98937.81
2023-03-07T11:42:04.046Z,98929.22
2023-03-07T11:44:46.778Z,98935.13
2023-03-07T11:47:23.115Z,98934.31
2023-03-07T11:50:15.000Z,98936.47
2023-03-07T11:53:07.500Z,98946.44
2023-03-07T11:55:41.429Z,98946.75
2023-03-07T11:58:22.908Z,98946.22
2023-03-07T12:00:58.214Z,98944.34
2023-03-07T12:03:30.633Z,98956.97
2023-03-07T12:06:26.910Z,98951.88
2023-03-07T12:09:24.039Z,98952.94
2023-03-07T12:12:07.178Z,98941.41
2023-03-07T12:14:51.244Z,98946.00
2023-03-07T12:17:20.364Z,98950.28
2023-03-07T12:20:24.653Z,98954.56
2023-03-07T12:23:21.752Z,98948.97
2023-03-07T12:25:51.330Z,98957.06
2023-03-07T12:28:32.293Z,98952.81
2023-03-07T12:30:58.718Z,98957.59
2023-03-07T12:33:43.942Z,98955.47
2023-03-07T12:36:22.021Z,98950.63
2023-03-07T12:39:20.046Z,98953.56
2023-03-07T12:42:01.766Z,98940.16
2023-03-07T12:45:09.955Z,98941.53
2023-03-07T12:47:53.377Z,98941.81
2023-03-07T12:50:46.145Z,98947.16
2023-03-07T12:53:16.373Z,98945.00
2023-03-07T12:55:51.316Z,98954.38
2023-03-07T12:58:31.796Z,98949.03
2023-03-07T13:01:04.965Z,98969.13
2023-03-07T13:03:45.213Z,98993.66
2023-03-07T13:06:18.101Z,99012.84
2023-03-07T13:08:48.043Z,99004.66
2023-03-07T13:11:22.545Z,99002.16
2023-03-07T13:13:56.078Z,98997.13
2023-03-07T13:16:31.700Z,99003.13
2023-03-07T13:19:35.582Z,98996.44
2023-03-07T13:22:16.650Z,98991.44
2023-03-07T13:24:48.055Z,98986.44
2023-03-07T13:27:22.357Z,98994.81
2023-03-07T13:30:07.415Z,98996.47
2023-03-07T13:32:52.265Z,98996.44
2023-03-07T13:35:30.524Z,98987.78
2023-03-07T13:38:15.416Z,98974.44
2023-03-07T13:40:44.984Z,98971.50
2023-03-07T13:43:35.568Z,98987.53
2023-03-07T13:46:04.462Z,98980.09
2023-03-07T13:48:30.947Z,98987.38
2023-03-07T13:51:00.466Z,98980.47
2023-03-07T13:53:27.860Z,98973.41
2023-03-07T13:56:00.621Z,98984.72
2023-03-07T13:58:33.616Z,98983.34
2023-03-07T14:01:02.132Z,98988.50
2023-03-07T14:03:33.017Z,98984.94
2023-03-07T14:06:04.630Z,98994.72
2023-03-07T14:08:34.141Z,98988.38
2023-03-07T14:11:01.094Z,98991.50
2023-03-07T14:13:54.314Z,98987.81
2023-03-07T14:16:47.185Z,98987.09
2023-03-07T14:19:41.661Z,98993.84
2023-03-07T14:22:25.462Z,98993.63
2023-03-07T14:25:10.418Z,98997.72
2023-03-07T14:28:00.022Z,99001.75
2023-03-07T14:30:30.420Z,99008.38
2023-03-07T14:32:57.761Z,99004.63
2023-03-07T14:35:39.856Z,99005.66
2023-03-07T14:38:18.487Z,99017.13
2023-03-07T14:40:52.281Z,99018.34
2023-03-07T14:43:30.650Z,99013.44
2023-03-07T14:46:29.279Z,99014.16
2023-03-07T14:49:28.008Z,99013.09
2023-03-07T14:51:54.555Z,99011.53
2023-03-07T14:54:25.452Z,99014.16
2023-03-07T14:56:54.102Z,99019.56
2023-03-07T14:59:28.656Z,99013.50
2023-03-07T15:01:57.077Z,99012.91
2023-03-07T15:04:29.222Z,99023.84
2023-03-07T15:06:59.079Z,99018.81
2023-03-07T15:09:26.393Z,99022.44
2023-03-07T15:12:02.700Z,99018.44
2023-03-07T15:14:44.392Z,99025.22
2023-03-07T15:17:20.887Z,99027.84
2023-03-07T15:20:00.194Z,99018.19
2023-03-07T15:22:39.361Z,99017.94
2023-03-07T15:25:16.716Z,99016.53
2023-03-07T15:27:43.242Z,99020.81
2023-03-07T15:30:23.772Z,99021.16
2023-03-07T15:33:10.921Z,99018.47
2023-03-07T15:35:37.426Z,99024.66
2023-03-07T15:38:21.449Z,99028.72
2023-03-07T15:40:48.077Z,99023.03
2023-03-07T15:43:35.048Z,99020.09
2023-03-07T15:46:06.121Z,99024.56
2023-03-07T15:48:52.573Z,99025.50
2023-03-07T15:51:24.641Z,99027.28
2023-03-07T15:53:56.717Z,99034.88
2023-03-07T15:56:30.378Z,99037.69
2023-03-07T15:59:01.921Z,99040.38
2023-03-07T16:01:28.537Z,99045.81
2023-03-07T16:04:00.112Z,99041.28
2023-03-07T16:06:31.541Z,99045.88
2023-03-07T16:08:58.054Z,99041.72
2023-03-07T16:11:24.530Z,99048.50
2023-03-07T16:13:51.412Z,99052.44
2023-03-07T16:16:27.263Z,99050.31
2023-03-07T16:18:54.871Z,99059.38
2023-03-07T16:21:21.485Z,99052.94
2023-03-07T16:23:48.067Z,99063.00
2023-03-07T16:26:23.071Z,99058.44
2023-03-07T16:28:51.326Z,99056.94
2023-03-07T16:31:19.478Z,99058.75
2023-03-07T16:33:47.120Z,99057.22
2023-03-07T16:36:15.142Z,99064.91
2023-03-07T16:38:41.576Z,99068.19
2023-03-07T16:41:17.002Z,99082.41
2023-03-07T16:43:44.981Z,99078.09
2023-03-07T16:46:15.383Z,99079.44
2023-03-07T16:48:42.805Z,99082.81
2023-03-07T16:51:16.724Z,99081.56
2023-03-07T16:53:45.114Z,99088.16
2023-03-07T16:56:18.958Z,99098.31
2023-03-07T16:58:45.720Z,99094.91
2023-03-07T17:01:13.713Z,99080.00
2023-03-07T17:03:41.105Z,99073.84
2023-03-07T17:06:13.506Z,99090.41
2023-03-07T17:08:40.298Z,99083.69
2023-03-07T17:11:19.549Z,99088.81
2023-03-07T17:13:47.694Z,99083.66
2023-03-07T17:16:18.009Z,99081.78
2023-03-07T17:18:44.884Z,99085.88
2023-03-07T17:21:16.256Z,99087.13
2023-03-07T17:23:45.026Z,99089.41
2023-03-07T17:26:18.096Z,99083.41
2023-03-07T17:28:45.564Z,99093.03
2023-03-07T17:31:11.972Z,99089.59
2023-03-07T17:33:38.507Z,99101.59
2023-03-07T17:36:05.429Z,99098.72
2023-03-07T17:38:32.019Z,99103.22
2023-03-07T17:40:58.476Z,99105.97
2023-03-07T17:43:24.893Z,99116.84
2023-03-07T17:45:51.655Z,99123.78
2023-03-07T17:48:18.129Z,99126.25
2023-03-07T17:50:44.595Z,99122.06
2023-03-07T17:53:11.100Z,99124.75
2023-03-07T17:55:38.753Z,99129.00
2023-03-07T17:58:09.593Z,99130.41
2023-03-07T18:00:37.840Z,99128.59
2023-03-07T18:03:05.675Z,99133.56
2023-03-07T18:05:32.141Z,99138.06
2023-03-07T18:07:58.572Z,99139.06
2023-03-07T18:10:25.168Z,99142.00
2023-03-07T18:12:53.505Z,99149.72
2023-03-07T18:15:21.762Z,99151.03
2023-03-07T18:17:49.435Z,99150.78
2023-03-07T18:20:20.402Z,99156.19
2023-03-07T18:22:47.775Z,99149.72
2023-03-07T18:25:16.110Z,99150.84
2023-03-07T18:27:43.476Z,99165.28
2023-03-07T18:30:11.838Z,99151.28
2023-03-07T18:32:38.459Z,99159.81
2023-03-07T18:35:05.961Z,99160.78
2023-03-07T18:37:32.416Z,99170.44
2023-03-07T18:39:58.865Z,99171.25
2023-03-07T18:42:25.424Z,99174.09
2023-03-07T18:44:52.081Z,99175.63
2023-03-07T18:47:18.977Z,99183.47
2023-03-07T18:49:49.698Z,99167.91
2023-03-07T18:52:16.850Z,99183.06
2023-03-07T18:54:44.183Z,99169.13
2023-03-07T18:57:11.036Z,99175.84
2023-03-07T18:59:38.153Z,99178.56
2023-03-07T19:02:07.330Z,99174.91
2023-03-07T19:04:33.885Z,99184.78
2023-03-07T19:07:00.605Z,99181.25
2023-03-07T19:09:27.663Z,99182.38
2023-03-07T19:11:54.328Z,99187.41
2023-03-07T19:14:21.734Z,99187.97
2023-03-07T19:16:48.681Z,99189.91
2023-03-07T19:19:15.467Z,99192.25
2023-03-07T19:21:41.948Z,99199.44
2023-03-07T19:24:11.317Z,99200.19
2023-03-07T19:26:37.947Z,99212.41
2023-03-07T19:29:04.627Z,99211.59
2023-03-07T19:31:32.590Z,99226.13
2023-03-07T19:34:01.569Z,99219.72
2023-03-07T19:36:29.515Z,99225.09
2023-03-07T19:38:59.002Z,99225.63
2023-03-07T19:41:27.330Z,99230.97
2023-03-07T19:43:55.286Z,99231.66
2023-03-07T19:46:22.275Z,99228.63
2023-03-07T19:48:49.369Z,99232.38
2023-03-07T19:51:24.908Z,99243.63
2023-03-07T19:53:54.839Z,99253.69
2023-03-07T19:56:27.225Z,99259.06
2023-03-07T19:58:54.991Z,99258.53
2023-03-07T20:01:22.715Z,99262.84
2023-03-07T20:04:10.162Z,99259.38
2023-03-07T20:06:36.928Z,99264.72
2023-03-07T20:09:03.870Z,99260.81
2023-03-07T20:11:34.821Z,99267.63
2023-03-07T20:14:04.725Z,99268.44
2023-03-07T20:16:32.835Z,99275.16
2023-03-07T20:19:02.400Z,99279.38
2023-03-07T20:21:29.439Z,99274.66
2023-03-07T20:23:59.582Z,99279.28
2023-03-07T20:26:32.336Z,99276.78
2023-03-07T20:29:00.254Z,99274.66
2023-03-07T20:31:28.656Z,99276.94
2023-03-07T20:33:57.861Z,99271.50
2023-03-07T20:36:30.368Z,99281.47
2023-03-07T20:38:59.110Z,99289.34
2023-03-07T20:41:28.072Z,99288.47
2023-03-07T20:43:58.230Z,99285.66
2023-03-07T20:46:24.764Z,99286.41
2023-03-07T20:48:55.056Z,99289.97
2023-03-07T20:51:24.148Z,99289.41
2023-03-07T20:53:55.401Z,99290.59
2023-03-07T20:56:22.908Z,99298.84
2023-03-07T20:58:49.428Z,99292.78
2023-03-07T21:01:17.870Z,99299.16
2023-03-07T21:03:44.798Z,99299.41
2023-03-07T21:06:11.310Z,99302.44
2023-03-07T21:08:38.212Z,99303.38
2023-03-07T21:11:05.811Z,99305.59
2023-03-07T21:13:35.857Z,99299.31
2023-03-07T21:16:06.336Z,99300.00
2023-03-07T21:18:33.407Z,99307.84
2023-03-07T21:21:01.968Z,99306.63
2023-03-07T21:23:28.908Z,99315.84
2023-03-07T21:26:04.779Z,99319.16
2023-03-07T21:28:32.315Z,99312.06
2023-03-07T21:31:14.759Z,99312.72
2023-03-07T21:33:43.286Z,99320.56
2023-03-07T21:36:12.038Z,99321.13
2023-03-07T21:38:40.392Z,99308.97
2023-03-07T21:41:07.290Z,99320.78
2023-03-07T21:43:34.050Z,99323.78
2023-03-07T21:46:08.760Z,99330.97
2023-03-07T21:48:36.331Z,99322.19
2023-03-07T21:51:04.210Z,99327.72
2023-03-07T21:53:31.628Z,99328.91
2023-03-07T21:56:00.612Z,99330.22
2023-03-07T21:58:28.351Z,99332.53
2023-03-07T22:00:57.975Z,99333.47
2023-03-07T22:03:26.267Z,99333.47
2023-03-07T22:05:52.981Z,99338.34
2023-03-07T22:08:20.799Z,99336.50
2023-03-07T22:11:03.880Z,99350.22
2023-03-07T22:13:32.567Z,99344.78
2023-03-07T22:16:01.469Z,99352.41
2023-03-07T22:18:28.052Z,99343.97
2023-03-07T22:20:55.243Z,99345.66
2023-03-07T22:23:22.908Z,99346.16
2023-03-07T22:25:49.559Z,99353.00
2023-03-07T22:28:19.459Z,99353.72
2023-03-07T22:30:47.210Z,99355.44
2023-03-07T22:33:13.613Z,99353.06
2023-03-07T22:35:40.151Z,99353.47
2023-03-07T22:38:07.016Z,99359.75
2023-03-07T22:40:33.682Z,99363.56
2023-03-07T22:43:00.140Z,99368.09
2023-03-07T22:45:26.538Z,99364.63
2023-03-07T22:47:53.098Z,99369.28
2023-03-07T22:50:19.659Z,99371.38
2023-03-07T22:52:46.118Z,99367.56
2023-03-07T22:55:12.513Z,99373.34
2023-03-07T22:57:38.905Z,99378.81
2023-03-07T23:00:06.592Z,99373.22
2023-03-07T23:02:33.016Z,99370.66
2023-03-07T23:04:59.438Z,99371.38
2023-03-07T23:07:26.374Z,99368.34
2023-03-07T23:09:52.873Z,99377.38
2023-03-07T23:12:19.438Z,99379.34
2023-03-07T23:14:46.073Z,99375.78
2023-03-07T23:17:12.449Z,99378.97
2023-03-07T23:19:38.917Z,99380.03
2023-03-07T23:22:05.798Z,99372.41
2023-03-07T23:24:32.337Z,99379.16
2023-03-07T23:26:58.747Z,99376.47
2023-03-07T23:29:25.145Z,99387.50
2023-03-07T23:31:51.894Z,99382.97
2023-03-07T23:34:20.511Z,99382.28
2023-03-07T23:36:47.449Z,99385.41
2023-03-07T23:39:15.164Z,99382.28
2023-03-07T23:41:41.599Z,99384.81
2023-03-07T23:44:08.100Z,99382.94
2023-03-07T23:46:34.621Z,99387.59
2023-03-07T23:49:01.118Z,99392.47
2023-03-07T23:51:27.592Z,99388.53
2023-03-07T23:53:54.057Z,99389.94
2023-03-07T23:56:21.070Z,99402.00
2023-03-07T23:58:51.569Z,99400.47
